sensor_id;sensor_type;location;lat;lon;timestamp;pressure;altitude;pressure_sealevel;temperature;humidity
32789;BME280;19141;48.980;8.410;2023-03-24T05:22:32;99238.63;;;12.00;100.00
32789;BME280;19141;48.980;8.410;2023-03-24T05:24:58;99229.97;;;12.05;100.00
32789;BME280;19141;48.980;8.410;2023-03-24T05:27:23;99239.81;;;12.04;100.00
32789;BME280;19141;48.980;8.410;2023-03-24T05:29:49;99225.25;;;12.07;100.00
32789;BME280;19141;48.980;8.410;2023-03-24T05:32:20;99227.28;;;12.11;100.00
32789;BME280;19141;48.980;8.410;2023-03-24T05:34:46;99220.72;;;12.14;100.00
32789;BME280;19141;48.980;8.410;2023-03-24T05:37:12;99215.19;;;12.15;100.00
32789;BME280;19141;48.980;8.410;2023-03-24T05:39:44;99216.22;;;12.14;100.00
32789;BME280;19141;48.980;8.410;2023-03-24T05:42:26;99205.94;;;12.11;100.00
32789;BME280;19141;48.980;8.410;2023-03-24T05:44:51;99197.09;;;12.17;100.00
32789;BME280;19141;48.980;8.410;2023-03-24T05:47:24;99207.78;;;12.17;100.00
32789;BME280;19141;48.980;8.410;2023-03-24T05:49:50;99197.31;;;12.16;100.00
32789;BME280;19141;48.980;8.410;2023-03-24T05:52:16;99196.88;;;12.12;100.00
32789;BME280;19141;48.980;8.410;2023-03-24T05:54:45;99197.91;;;12.18;100.00
32789;BME280;19141;48.980;8.410;2023-03-24T05:57:18;99186.81;;;12.21;100.00
32789;BME280;19141;48.980;8.410;2023-03-24T06:00:05;99181.28;;;12.22;100.00
32789;BME280;19141;48.980;8.410;2023-03-24T06:02:45;99187.84;;;12.27;100.00
32789;BME280;19141;48.980;8.410;2023-03-24T06:05:24;99180.81;;;12.32;100.00
32789;BME280;19141;48.980;8.410;2023-03-24T06:07:50;99187.00;;;12.33;100.00
32789;BME280;19141;48.980;8.410;2023-03-24T06:10:16;99177.16;;;12.33;100.00
32789;BME280;19141;48.980;8.410;2023-03-24T06:12:47;99178.34;;;12.37;100.00
32789;BME280;19141;48.980;8.410;2023-03-24T06:15:13;99177.28;;;12.45;100.00
32789;BME280;19141;48.980;8.410;2023-03-24T06:17:42;99178.94;;;12.46;100.00
32789;BME280;19141;48.980;8.410;2023-03-24T06:20:21;99194.75;;;12.47;100.00
32789;BME280;19141;48.980;8.410;2023-03-24T06:22:58;99207.69;;;12.50;100.00
32789;BME280;19141;48.980;8.410;2023-03-24T06:25:28;99203.16;;;12.51;100.00
32789;BME280;19141;48.980;8.410;2023-03-24T06:28:09;99206.63;;;12.52;100.00
32789;BME280;19141;48.980;8.410;2023-03-24T06:30:36;99211.16;;;12.58;100.00
32789;BME280;19141;48.980;8.410;2023-03-24T06:33:03;99211.94;;;12.65;100.00
32789;BME280;19141;48.980;8.410;2023-03-24T06:35:29;99223.06;;;12.62;100.00
32789;BME280;19141;48.980;8.410;2023-03-24T06:38:05;99228.41;;;12.62;100.00
32789;BME280;19141;48.980;8.410;2023-03-24T06:40:32;99233.13;;;12.66;100.00
32789;BME280;19141;48.980;8.410;2023-03-24T06:42:57;99234.97;;;12.66;100.00
32789;BME280;19141;48.980;8.410;2023-03-24T06:45:23;99243.19;;;12.64;100.00
32789;BME280;19141;48.980;8.410;2023-03-24T06:47:53;99253.03;;;12.70;100.00
32789;BME280;19141;48.980;8.410;2023-03-24T06:50:22;99245.84;;;12.64;100.00
32789;BME280;19141;48.980;8.410;2023-03-24T06:52:52;99245.84;;;12.64;100.00
32789;BME280;19141;48.980;8.410;2023-03-24T06:55:18;99251.63;;;12.61;100.00
32789;BME280;19141;48.980;8.410;2023-03-24T06:57:49;99249.19;;;12.53;100.00
32789;BME280;19141;48.980;8.410;2023-03-24T07:00:37;99250.25;;;12.45;100.00
32789;BME280;19141;48.980;8.410;2023-03-24T07:03:17;99260.50;;;12.42;100.00
32789;BME280;19141;48.980;8.410;2023-03-24T07:05:59;99255.38;;;12.40;100.00
32789;BME280;19141;48.980;8.410;2023-03-24T07:08:25;99262.16;;;12.43;100.00
32789;BME280;19141;48.980;8.410;2023-03-24T07:10:56;99269.13;;;12.37;100.00
32789;BME280;19141;48.980;8.410;2023-03-24T07:13:21;99266.69;;;12.36;100.00
32789;BME280;19141;48.980;8.410;2023-03-24T07:15:48;99271.81;;;12.31;100.00
32789;BME280;19141;48.980;8.410;2023-03-24T07:18:13;99276.13;;;12.32;100.00
32789;BME280;19141;48.980;8.410;2023-03-24T07:20:41;99268.34;;;12.30;100.00
32789;BME280;19141;48.980;8.410;2023-03-24T07:23:12;99270.41;;;12.28;100.00
32789;BME280;19141;48.980;8.410;2023-03-24T07:25:50;99276.56;;;12.22;100.00
32789;BME280;19141;48.980;8.410;2023-03-24T07:28:23;99281.31;;;12.20;100.00
32789;BME280;19141;48.980;8.410;2023-03-24T07:30:48;99286.00;;;12.18;100.00
32789;BME280;19141;48.980;8.410;2023-03-24T07:33:17;99285.19;;;12.17;100.00
32789;BME280;19141;48.980;8.410;2023-03-24T07:35:43;99279.47;;;12.14;100.00
32789;BME280;19141;48.980;8.410;2023-03-24T07:38:09;99276.38;;;12.10;100.00
32789;BME280;19141;48.980;8.410;2023-03-24T07:40:34;99272.66;;;12.11;100.00
32789;BME280;19141;48.980;8.410;2023-03-24T07:43:01;99269.59;;;12.14;100.00
32789;BME280;19141;48.980;8.410;2023-03-24T07:45:29;99253.97;;;12.11;100.00
32789;BME280;19141;48.980;8.410;2023-03-24T07:47:56;99258.09;;;12.14;100.00
32789;BME280;19141;48.980;8.410;2023-03-24T07:50:27;99253.16;;;12.11;100.00
32789;BME280;19141;48.980;8.410;2023-03-24T07:52:53;99252.75;;;12.20;100.00
32789;BME280;19141;48.980;8.410;2023-03-24T07:55:19;99239.19;;;12.29;100.00
32789;BME280;19141;48.980;8.410;2023-03-24T07:58:03;99216.56;;;12.31;100.00
32789;BME280;19141;48.980;8.410;2023-03-24T08:00:30;99183.91;;;12.36;100.00
32789;BME280;19141;48.980;8.410;2023-03-24T08:03:11;99221.06;;;12.44;100.00
32789;BME280;19141;48.980;8.410;2023-03-24T08:06:01;99245.50;;;12.47;100.00
32789;BME280;19141;48.980;8.410;2023-03-24T08:08:30;99233.34;;;12.52;100.00
32789;BME280;19141;48.980;8.410;2023-03-24T08:10:56;99223.91;;;12.56;100.00
32789;BME280;19141;48.980;8.410;2023-03-24T08:13:21;99231.69;;;12.57;100.00
32789;BME280;19141;48.980;8.410;2023-03-24T08:15:47;99241.31;;;12.65;100.00
32789;BME280;19141;48.980;8.410;2023-03-24T08:18:12;99234.94;;;12.72;100.00
32789;BME280;19141;48.980;8.410;2023-03-24T08:20:38;99223.63;;;12.70;100.00
32789;BME280;19141;48.980;8.410;2023-03-24T08:23:03;99239.38;;;12.92;100.00
32789;BME280;19141;48.980;8.410;2023-03-24T08:25:30;99242.44;;;12.95;100.00
32789;BME280;19141;48.980;8.410;2023-03-24T08:27:56;99223.28;;;13.05;100.00
32789;BME280;19141;48.980;8.410;2023-03-24T08:30:24;99228.78;;;13.10;100.00
32789;BME280;19141;48.980;8.410;2023-03-24T08:32:57;99231.88;;;13.20;100.00
32789;BME280;19141;48.980;8.410;2023-03-24T08:35:29;99239.63;;;13.28;100.00
32789;BME280;19141;48.980;8.410;2023-03-24T08:37:56;99240.88;;;13.26;100.00
32789;BME280;19141;48.980;8.410;2023-03-24T08:40:24;99247.84;;;13.34;100.00
32789;BME280;19141;48.980;8.410;2023-03-24T08:42:56;99257.75;;;13.26;100.00
32789;BME280;19141;48.980;8.410;2023-03-24T08:45:23;99256.84;;;13.39;100.00
32789;BME280;19141;48.980;8.410;2023-03-24T08:47:52;99251.50;;;13.39;100.00
32789;BME280;19141;48.980;8.410;2023-03-24T08:50:20;99256.16;;;13.50;100.00
32789;BME280;19141;48.980;8.410;2023-03-24T08:52:47;99254.63;;;13.61;100.00
32789;BME280;19141;48.980;8.410;2023-03-24T08:55:14;99253.00;;;13.60;100.00
32789;BME280;19141;48.980;8.410;2023-03-24T08:57:39;99251.72;;;13.69;100.00
32789;BME280;19141;48.980;8.410;2023-03-24T09:00:05;99249.63;;;13.71;100.00
32789;BME280;19141;48.980;8.410;2023-03-24T09:02:44;99262.75;;;13.79;100.00
32789;BME280;19141;48.980;8.410;2023-03-24T09:05:11;99266.78;;;13.89;100.00
32789;BME280;19141;48.980;8.410;2023-03-24T09:07:37;99271.75;;;13.85;100.00
32789;BME280;19141;48.980;8.410;2023-03-24T09:10:07;99262.78;;;13.73;100.00
32789;BME280;19141;48.980;8.410;2023-03-24T09:12:33;99261.75;;;13.74;100.00
32789;BME280;19141;48.980;8.410;2023-03-24T09:14:59;99268.53;;;13.76;100.00
32789;BME280;19141;48.980;8.410;2023-03-24T09:17:24;99254.88;;;13.84;100.00
32789;BME280;19141;48.980;8.410;2023-03-24T09:19:50;99254.59;;;13.93;100.00
32789;BME280;19141;48.980;8.410;2023-03-24T09:22:16;99262.22;;;13.96;100.00
32789;BME280;19141;48.980;8.410;2023-03-24T09:24:41;99246.28;;;14.01;100.00
32789;BME280;19141;48.980;8.410;2023-03-24T09:27:08;99255.53;;;14.05;100.00
32789;BME280;19141;48.980;8.410;2023-03-24T09:29:34;99261.28;;;14.08;100.00
32789;BME280;19141;48.980;8.410;2023-03-24T09:32:00;99259.44;;;14.09;100.00
32789;BME280;19141;48.980;8.410;2023-03-24T09:34:25;99250.34;;;14.10;100.00
32789;BME280;19141;48.980;8.410;2023-03-24T09:36:51;99233.59;;;14.15;100.00
32789;BME280;19141;48.980;8.410;2023-03-24T09:39:16;99229.09;;;14.15;100.00
32789;BME280;19141;48.980;8.410;2023-03-24T09:41:43;99226.94;;;14.24;100.00
32789;BME280;19141;48.980;8.410;2023-03-24T09:47:03;99230.19;;;14.51;100.00
32789;BME280;19141;48.980;8.410;2023-03-24T09:49:33;99242.59;;;14.63;100.00
32789;BME280;19141;48.980;8.410;2023-03-24T09:52:06;99236.72;;;14.73;98.38
32789;BME280;19141;48.980;8.410;2023-03-24T09:54:47;99249.84;;;14.81;98.83
32789;BME280;19141;48.980;8.410;2023-03-24T09:57:22;99261.06;;;14.90;97.00
32789;BME280;19141;48.980;8.410;2023-03-24T09:59:48;99254.22;;;14.94;94.51
32789;BME280;19141;48.980;8.410;2023-03-24T10:02:17;99242.06;;;14.91;94.12
32789;BME280;19141;48.980;8.410;2023-03-24T10:04:43;99244.16;;;14.89;93.95
32789;BME280;19141;48.980;8.410;2023-03-24T10:07:24;99244.91;;;14.78;92.93
32789;BME280;19141;48.980;8.410;2023-03-24T10:09:57;99259.44;;;14.71;92.72
32789;BME280;19141;48.980;8.410;2023-03-24T10:12:35;99251.16;;;14.72;92.50
32789;BME280;19141;48.980;8.410;2023-03-24T10:20:23;99253.25;;;14.88;91.97
32789;BME280;19141;48.980;8.410;2023-03-24T10:22:54;99254.56;;;14.98;91.04
32789;BME280;19141;48.980;8.410;2023-03-24T10:25:53;99266.94;;;14.99;90.56
32789;BME280;19141;48.980;8.410;2023-03-24T10:28:43;99274.53;;;15.02;89.96
32789;BME280;19141;48.980;8.410;2023-03-24T10:31:14;99271.78;;;15.08;89.72
32789;BME280;19141;48.980;8.410;2023-03-24T10:33:43;99277.41;;;15.18;89.11
32789;BME280;19141;48.980;8.410;2023-03-24T10:38:36;99290.19;;;15.35;87.94
32789;BME280;19141;48.980;8.410;2023-03-24T10:41:03;99285.09;;;15.45;86.48
32789;BME280;19141;48.980;8.410;2023-03-24T10:43:29;99284.69;;;15.60;85.76
32789;BME280;19141;48.980;8.410;2023-03-24T10:45:57;99288.16;;;15.79;86.81
32789;BME280;19141;48.980;8.410;2023-03-24T10:48:48;99288.53;;;15.94;82.86
32789;BME280;19141;48.980;8.410;2023-03-24T10:51:24;99282.56;;;16.04;85.52
32789;BME280;19141;48.980;8.410;2023-03-24T10:54:08;99318.09;;;16.06;85.17
32789;BME280;19141;48.980;8.410;2023-03-24T10:56:43;99316.56;;;16.10;82.79
32789;BME280;19141;48.980;8.410;2023-03-24T11:01:44;99307.25;;;16.36;79.79
32789;BME280;19141;48.980;8.410;2023-03-24T11:04:13;99295.59;;;16.30;79.02
32789;BME280;19141;48.980;8.410;2023-03-24T11:07:02;99318.53;;;16.02;80.86
32789;BME280;19141;48.980;8.410;2023-03-24T11:09:29;99318.63;;;15.84;82.98
32789;BME280;19141;48.980;8.410;2023-03-24T11:12:02;99313.63;;;15.88;89.15
32789;BME280;19141;48.980;8.410;2023-03-24T11:14:28;99324.66;;;16.33;91.55
32789;BME280;19141;48.980;8.410;2023-03-24T11:17:24;99338.22;;;16.38;88.00
32789;BME280;19141;48.980;8.410;2023-03-24T11:19:55;99327.09;;;16.23;86.41
32789;BME280;19141;48.980;8.410;2023-03-24T11:22:22;99331.44;;;16.24;87.83
32789;BME280;19141;48.980;8.410;2023-03-24T11:24:51;99356.75;;;16.05;87.28
32789;BME280;19141;48.980;8.410;2023-03-24T11:27:19;99364.81;;;15.74;87.86
32789;BME280;19141;48.980;8.410;2023-03-24T11:29:49;99347.19;;;15.48;89.13
32789;BME280;19141;48.980;8.410;2023-03-24T11:32:22;99336.94;;;15.27;90.92
32789;BME280;19141;48.980;8.410;2023-03-24T11:34:57;99343.56;;;15.25;92.13
32789;BME280;19141;48.980;8.410;2023-03-24T11:37:28;99334.63;;;15.12;92.09
32789;BME280;19141;48.980;8.410;2023-03-24T11:40:24;99350.06;;;15.17;93.40
32789;BME280;19141;48.980;8.410;2023-03-24T11:42:57;99350.44;;;15.20;94.61
32789;BME280;19141;48.980;8.410;2023-03-24T11:45:27;99343.94;;;15.28;93.93
32789;BME280;19141;48.980;8.410;2023-03-24T11:47:57;99351.69;;;15.18;94.10
32789;BME280;19141;48.980;8.410;2023-03-24T11:50:27;99347.97;;;15.19;93.04
32789;BME280;19141;48.980;8.410;2023-03-24T11:53:13;99342.66;;;15.12;92.62
32789;BME280;19141;48.980;8.410;2023-03-24T11:55:51;99366.72;;;15.19;93.34
32789;BME280;19141;48.980;8.410;2023-03-24T12:06:35;99434.13;;;13.60;93.88
32789;BME280;19141;48.980;8.410;2023-03-24T12:18:03;99433.44;;;11.93;100.00
32789;BME280;19141;48.980;8.410;2023-03-24T12:20:43;99419.22;;;11.86;100.00
32789;BME280;19141;48.980;8.410;2023-03-24T12:28:37;99428.75;;;11.54;100.00
32789;BME280;19141;48.980;8.410;2023-03-24T12:34:14;99427.47;;;11.44;100.00
32789;BME280;19141;48.980;8.410;2023-03-24T12:36:49;99436.72;;;11.48;100.00
32789;BME280;19141;48.980;8.410;2023-03-24T12:40:06;99439.06;;;11.23;100.00
32789;BME280;19141;48.980;8.410;2023-03-24T12:42:44;99434.94;;;11.20;100.00
32789;BME280;19141;48.980;8.410;2023-03-24T12:45:32;99424.19;;;11.07;100.00
32789;BME280;19141;48.980;8.410;2023-03-24T12:50:37;99433.75;;;10.95;100.00
32789;BME280;19141;48.980;8.410;2023-03-24T12:53:21;99417.94;;;10.86;100.00
32789;BME280;19141;48.980;8.410;2023-03-24T12:58:23;99451.41;;;10.68;100.00
32789;BME280;19141;48.980;8.410;2023-03-24T13:03:36;99433.09;;;10.58;100.00
32789;BME280;19141;48.980;8.410;2023-03-24T13:06:28;99439.88;;;10.60;100.00
32789;BME280;19141;48.980;8.410;2023-03-24T13:09:05;99444.81;;;10.64;100.00
32789;BME280;19141;48.980;8.410;2023-03-24T13:11:49;99432.31;;;10.64;100.00
32789;BME280;19141;48.980;8.410;2023-03-24T13:14:24;99436.47;;;10.73;100.00
32789;BME280;19141;48.980;8.410;2023-03-24T13:16:56;99426.66;;;10.74;100.00
32789;BME280;19141;48.980;8.410;2023-03-24T13:19:24;99417.88;;;10.80;100.00
32789;BME280;19141;48.980;8.410;2023-03-24T13:21:52;99420.63;;;10.93;100.00
32789;BME280;19141;48.980;8.410;2023-03-24T13:24:19;99426.44;;;11.03;100.00
32789;BME280;19141;48.980;8.410;2023-03-24T13:32:30;99431.31;;;11.34;100.00
32789;BME280;19141;48.980;8.410;2023-03-24T13:35:04;99432.75;;;11.30;100.00
32789;BME280;19141;48.980;8.410;2023-03-24T13:37:37;99424.16;;;11.35;100.00
32789;BME280;19141;48.980;8.410;2023-03-24T13:40:17;99422.09;;;11.37;100.00
32789;BME280;19141;48.980;8.410;2023-03-24T13:42:52;99410.22;;;11.39;100.00
32789;BME280;19141;48.980;8.410;2023-03-24T13:45:46;99410.25;;;11.46;100.00
32789;BME280;19141;48.980;8.410;2023-03-24T13:48:37;99407.41;;;11.48;100.00
32789;BME280;19141;48.980;8.410;2023-03-24T13:51:21;99416.03;;;11.56;100.00
32789;BME280;19141;48.980;8.410;2023-03-24T13:53:55;99408.41;;;11.53;100.00
32789;BME280;19141;48.980;8.410;2023-03-24T13:56:31;99421.78;;;11.60;100.00
32789;BME280;19141;48.980;8.410;2023-03-24T14:01:43;99425.53;;;11.79;100.00
32789;BME280;19141;48.980;8.410;2023-03-24T14:09:29;99422.78;;;12.13;100.00
32789;BME280;19141;48.980;8.410;2023-03-24T14:14:26;99412.53;;;12.23;100.00
32789;BME280;19141;48.980;8.410;2023-03-24T14:19:28;99409.84;;;12.30;100.00
32789;BME280;19141;48.980;8.410;2023-03-24T14:22:03;99398.34;;;12.36;100.00
32789;BME280;19141;48.980;8.410;2023-03-24T14:24:33;99390.13;;;12.38;100.00
32789;BME280;19141;48.980;8.410;2023-03-24T14:26:59;99395.06;;;12.47;100.00
32789;BME280;19141;48.980;8.410;2023-03-24T14:29:36;99385.81;;;12.57;100.00
32789;BME280;19141;48.980;8.410;2023-03-24T14:32:03;99373.50;;;12.62;100.00
32789;BME280;19141;48.980;8.410;2023-03-24T14:34:29;99366.25;;;12.83;100.00
32789;BME280;19141;48.980;8.410;2023-03-24T14:37:00;99370.16;;;12.87;100.00
32789;BME280;19141;48.980;8.410;2023-03-24T14:39:45;99364.34;;;13.03;100.00
32789;BME280;19141;48.980;8.410;2023-03-24T14:42:51;99365.97;;;13.17;100.00
32789;BME280;19141;48.980;8.410;2023-03-24T14:45:40;99365.97;;;13.24;100.00
32789;BME280;19141;48.980;8.410;2023-03-24T14:48:22;99375.00;;;13.23;100.00
32789;BME280;19141;48.980;8.410;2023-03-24T14:50:48;99382.03;;;13.24;100.00
32789;BME280;19141;48.980;8.410;2023-03-24T14:53:18;99379.13;;;13.19;100.00
32789;BME280;19141;48.980;8.410;2023-03-24T14:55:45;99381.38;;;13.15;100.00
32789;BME280;19141;48.980;8.410;2023-03-24T14:58:33;99368.44;;;13.12;100.00
32789;BME280;19141;48.980;8.410;2023-03-24T15:01:03;99370.69;;;13.22;100.00
32789;BME280;19141;48.980;8.410;2023-03-24T15:06:18;99368.66;;;13.17;100.00
32789;BME280;19141;48.980;8.410;2023-03-24T15:08:52;99362.66;;;13.22;100.00
32789;BME280;19141;48.980;8.410;2023-03-24T15:11:21;99367.78;;;13.17;100.00
32789;BME280;19141;48.980;8.410;2023-03-24T15:13:52;99363.06;;;13.19;100.00
32789;BME280;19141;48.980;8.410;2023-03-24T15:16:24;99366.16;;;13.22;100.00
32789;BME280;19141;48.980;8.410;2023-03-24T15:18:55;99366.56;;;13.26;100.00
32789;BME280;19141;48.980;8.410;2023-03-24T15:21:28;99361.44;;;13.24;100.00
32789;BME280;19141;48.980;8.410;2023-03-24T15:23:55;99345.41;;;13.24;100.00
32789;BME280;19141;48.980;8.410;2023-03-24T15:26:22;99348.03;;;13.38;100.00
32789;BME280;19141;48.980;8.410;2023-03-24T15:28:56;99352.09;;;13.40;100.00
32789;BME280;19141;48.980;8.410;2023-03-24T15:31:23;99353.72;;;13.48;100.00
32789;BME280;19141;48.980;8.410;2023-03-24T15:33:50;99350.63;;;13.51;100.00
32789;BME280;19141;48.980;8.410;2023-03-24T15:36:20;99352.28;;;13.45;100.00
32789;BME280;19141;48.980;8.410;2023-03-24T15:38:48;99340.59;;;13.40;100.00
32789;BME280;19141;48.980;8.410;2023-03-24T15:41:19;99353.56;;;13.36;100.00
32789;BME280;19141;48.980;8.410;2023-03-24T15:43:49;99358.78;;;13.24;100.00
32789;BME280;19141;48.980;8.410;2023-03-24T15:46:25;99351.97;;;13.22;100.00
32789;BME280;19141;48.980;8.410;2023-03-24T15:48:52;99348.69;;;13.26;100.00
32789;BME280;19141;48.980;8.410;2023-03-24T15:51:18;99347.19;;;13.37;100.00
32789;BME280;19141;48.980;8.410;2023-03-24T15:53:46;99339.75;;;13.46;100.00
32789;BME280;19141;48.980;8.410;2023-03-24T15:56:25;99335.63;;;13.50;100.00
32789;BME280;19141;48.980;8.410;2023-03-24T16:01:31;99322.19;;;13.56;100.00
32789;BME280;19141;48.980;8.410;2023-03-24T16:04:16;99329.34;;;13.63;100.00
32789;BME280;19141;48.980;8.410;2023-03-24T16:06:47;99327.09;;;13.60;100.00
32789;BME280;19141;48.980;8.410;2023-03-24T16:09:14;99330.56;;;13.67;100.00
32789;BME280;19141;48.980;8.410;2023-03-24T16:11:40;99327.66;;;13.68;100.00
32789;BME280;19141;48.980;8.410;2023-03-24T16:14:26;99323.13;;;13.69;100.00
32789;BME280;19141;48.980;8.410;2023-03-24T16:16:53;99318.22;;;13.66;99.21
32789;BME280;19141;48.980;8.410;2023-03-24T16:19:19;99322.50;;;13.73;98.33
32789;BME280;19141;48.980;8.410;2023-03-24T16:21:44;99325.34;;;13.78;99.79
32789;BME280;19141;48.980;8.410;2023-03-24T16:24:10;99325.38;;;13.72;98.05
32789;BME280;19141;48.980;8.410;2023-03-24T16:26:35;99325.34;;;13.78;98.04
32789;BME280;19141;48.980;8.410;2023-03-24T16:29:14;99336.06;;;13.78;97.33
32789;BME280;19141;48.980;8.410;2023-03-24T16:31:41;99346.13;;;13.83;97.04
32789;BME280;19141;48.980;8.410;2023-03-24T16:34:08;99334.19;;;13.79;96.79
32789;BME280;19141;48.980;8.410;2023-03-24T16:36:33;99322.44;;;13.80;96.92
32789;BME280;19141;48.980;8.410;2023-03-24T16:39:00;99329.91;;;13.71;96.35
32789;BME280;19141;48.980;8.410;2023-03-24T16:41:26;99319.59;;;13.75;95.80
32789;BME280;19141;48.980;8.410;2023-03-24T16:43:52;99318.78;;;13.74;95.62
32789;BME280;19141;48.980;8.410;2023-03-24T16:48:52;99318.63;;;13.63;94.21
32789;BME280;19141;48.980;8.410;2023-03-24T16:51:18;99323.84;;;13.57;94.05
32789;BME280;19141;48.980;8.410;2023-03-24T16:53:45;99327.31;;;13.58;93.43
32789;BME280;19141;48.980;8.410;2023-03-24T16:56:16;99329.00;;;13.52;93.60
32789;BME280;19141;48.980;8.410;2023-03-24T16:58:43;99332.09;;;13.49;93.91
32789;BME280;19141;48.980;8.410;2023-03-24T17:01:16;99339.78;;;13.39;93.65
32789;BME280;19141;48.980;8.410;2023-03-24T17:04:16;99339.38;;;13.36;93.42
32789;BME280;19141;48.980;8.410;2023-03-24T17:06:48;99348.25;;;13.29;93.79
32789;BME280;19141;48.980;8.410;2023-03-24T17:09:15;99335.53;;;13.25;92.76
32789;BME280;19141;48.980;8.410;2023-03-24T17:11:42;99352.78;;;13.22;94.30
32789;BME280;19141;48.980;8.410;2023-03-24T17:14:08;99350.13;;;13.22;93.74
32789;BME280;19141;48.980;8.410;2023-03-24T17:16:38;99354.03;;;13.20;92.21
32789;BME280;19141;48.980;8.410;2023-03-24T17:19:08;99355.28;;;13.17;92.99
32789;BME280;19141;48.980;8.410;2023-03-24T17:21:41;99351.38;;;13.13;92.55
32789;BME280;19141;48.980;8.410;2023-03-24T17:24:10;99352.81;;;13.09;93.41
32789;BME280;19141;48.980;8.410;2023-03-24T17:26:38;99357.75;;;13.12;91.97
32789;BME280;19141;48.980;8.410;2023-03-24T17:29:05;99348.31;;;13.03;93.49
32789;BME280;19141;48.980;8.410;2023-03-24T17:31:31;99347.09;;;12.99;93.27
32789;BME280;19141;48.980;8.410;2023-03-24T17:33:57;99349.78;;;12.99;93.00
32789;BME280;19141;48.980;8.410;2023-03-24T17:36:22;99349.19;;;12.84;92.99
32789;BME280;19141;48.980;8.410;2023-03-24T17:38:48;99351.69;;;12.79;93.45
32789;BME280;19141;48.980;8.410;2023-03-24T17:41:14;99362.38;;;12.79;92.44
32789;BME280;19141;48.980;8.410;2023-03-24T17:43:39;99354.34;;;12.79;92.05
32789;BME280;19141;48.980;8.410;2023-03-24T17:46:05;99358.47;;;12.74;93.05
32789;BME280;19141;48.980;8.410;2023-03-24T17:48:31;99363.81;;;12.74;92.66
32789;BME280;19141;48.980;8.410;2023-03-24T17:50:56;99366.25;;;12.76;92.41
32789;BME280;19141;48.980;8.410;2023-03-24T17:53:23;99365.06;;;12.72;91.59
32789;BME280;19141;48.980;8.410;2023-03-24T17:55:56;99372.88;;;12.73;91.49
32789;BME280;19141;48.980;8.410;2023-03-24T17:58:22;99365.88;;;12.72;91.65
32789;BME280;19141;48.980;8.410;2023-03-24T18:00:48;99365.69;;;12.61;91.87
32789;BME280;19141;48.980;8.410;2023-03-24T18:03:14;99382.75;;;12.66;91.27
32789;BME280;19141;48.980;8.410;2023-03-24T18:05:40;99373.09;;;12.65;91.23
32789;BME280;19141;48.980;8.410;2023-03-24T18:08:05;99376.59;;;12.59;91.54
32789;BME280;19141;48.980;8.410;2023-03-24T18:10:32;99374.31;;;12.56;91.44
32789;BME280;19141;48.980;8.410;2023-03-24T18:13:04;99381.28;;;12.57;91.02
32789;BME280;19141;48.980;8.410;2023-03-24T18:15:30;99379.66;;;12.56;90.12
32789;BME280;19141;48.980;8.410;2023-03-24T18:17:55;99383.97;;;12.57;89.95
32789;BME280;19141;48.980;8.410;2023-03-24T18:20:21;99376.38;;;12.61;88.34
32789;BME280;19141;48.980;8.410;2023-03-24T18:22:47;99389.53;;;12.56;89.03
32789;BME280;19141;48.980;8.410;2023-03-24T18:25:12;99381.13;;;12.52;88.50
32789;BME280;19141;48.980;8.410;2023-03-24T18:27:39;99387.06;;;12.54;88.75
32789;BME280;19141;48.980;8.410;2023-03-24T18:30:06;99381.50;;;12.49;88.94
32789;BME280;19141;48.980;8.410;2023-03-24T18:32:32;99380.47;;;12.43;89.48
32789;BME280;19141;48.980;8.410;2023-03-24T18:35:00;99388.28;;;12.45;88.80
32789;BME280;19141;48.980;8.410;2023-03-24T18:37:27;99380.91;;;12.47;87.45
32789;BME280;19141;48.980;8.410;2023-03-24T18:39:52;99390.78;;;12.40;88.56
32789;BME280;19141;48.980;8.410;2023-03-24T18:42:18;99390.34;;;12.43;87.98
32789;BME280;19141;48.980;8.410;2023-03-24T18:44:44;99395.28;;;12.39;87.78
32789;BME280;19141;48.980;8.410;2023-03-24T18:47:10;99399.59;;;12.34;88.34
32789;BME280;19141;48.980;8.410;2023-03-24T18:49:38;99404.53;;;12.37;87.73
32789;BME280;19141;48.980;8.410;2023-03-24T18:52:03;99401.03;;;12.30;88.38
32789;BME280;19141;48.980;8.410;2023-03-24T18:54:29;99397.31;;;12.31;87.91
32789;BME280;19141;48.980;8.410;2023-03-24T18:56:54;99400.63;;;12.39;86.76
32789;BME280;19141;48.980;8.410;2023-03-24T18:59:20;99404.72;;;12.29;87.69
32789;BME280;19141;48.980;8.410;2023-03-24T19:01:45;99405.75;;;12.34;86.62
32789;BME280;19141;48.980;8.410;2023-03-24T19:04:13;99396.13;;;12.27;87.39
32789;BME280;19141;48.980;8.410;2023-03-24T19:06:39;99407.19;;;12.23;87.75
32789;BME280;19141;48.980;8.410;2023-03-24T19:09:07;99403.47;;;12.25;86.92
32789;BME280;19141;48.980;8.410;2023-03-24T19:11:32;99399.97;;;12.17;87.33
32789;BME280;19141;48.980;8.410;2023-03-24T19:13:58;99403.28;;;12.19;87.65
32789;BME280;19141;48.980;8.410;2023-03-24T19:16:24;99404.94;;;12.20;86.95
32789;BME280;19141;48.980;8.410;2023-03-24T19:18:50;99396.13;;;12.27;87.43
32789;BME280;19141;48.980;8.410;2023-03-24T19:21:17;99408.63;;;12.19;86.09
32789;BME280;19141;48.980;8.410;2023-03-24T19:23:43;99419.50;;;12.11;86.36
32789;BME280;19141;48.980;8.410;2023-03-24T19:26:08;99410.06;;;12.15;85.90
32789;BME280;19141;48.980;8.410;2023-03-24T19:28:34;99409.63;;;12.18;85.25
32789;BME280;19141;48.980;8.410;2023-03-24T19:31:05;99413.97;;;12.13;86.24
32789;BME280;19141;48.980;8.410;2023-03-24T19:33:31;99410.47;;;12.19;85.83
32789;BME280;19141;48.980;8.410;2023-03-24T19:35:57;99404.72;;;12.15;85.23
32789;BME280;19141;48.980;8.410;2023-03-24T19:38:22;99405.31;;;12.17;85.76
32789;BME280;19141;48.980;8.410;2023-03-24T19:40:51;99414.34;;;12.10;86.05
32789;BME280;19141;48.980;8.410;2023-03-24T19:43:19;99410.06;;;12.09;86.65
32789;BME280;19141;48.980;8.410;2023-03-24T19:45:54;99412.28;;;12.05;86.93
32789;BME280;19141;48.980;8.410;2023-03-24T19:48:21;99410.44;;;11.99;87.24